createdAt,value
2023-01-07T00:00:12.482Z,101103.03
2023-01-07T00:02:14.246Z,101101.69
2023-01-07T00:04:16.644Z,101097.63
2023-01-07T00:06:21.828Z,101092.50
2023-01-07T00:08:23.571Z,101096.59
2023-01-07T00:10:25.307Z,101090.34
2023-01-07T00:12:27.095Z,101084.16
2023-01-07T00:14:28.730Z,101085.53
2023-01-07T00:16:32.404Z,101081.19
2023-01-07T00:18:34.806Z,101080.13
2023-01-07T00:20:36.642Z,101077.94
2023-01-07T00:22:39.980Z,101075.25
2023-01-07T00:24:44.523Z,101071.75
2023-01-07T00:26:46.236Z,101073.63
2023-01-07T00:28:49.293Z,101061.19
2023-01-07T00:30:51.028Z,101067.97
2023-01-07T00:32:52.903Z,101055.53
2023-01-07T00:34:54.655Z,101066.06
2023-01-07T00:36:56.289Z,101062.78
2023-01-07T00:39:01.200Z,101060.34
2023-01-07T00:41:03.703Z,101056.28
2023-01-07T00:43:05.351Z,101059.50
2023-01-07T00:45:08.552Z,101056.25
2023-01-07T00:47:10.195Z,101055.19
2023-01-07T00:49:11.959Z,101053.56
2023-01-07T00:51:15.559Z,101058.41
2023-01-07T00:53:17.825Z,101044.31
2023-01-07T00:55:21.916Z,101052.47
2023-01-07T00:57:23.740Z,101041.38
2023-01-07T00:59:25.548Z,101046.78
2023-01-07T01:01:27.503Z,101036.78
2023-01-07T01:03:31.599Z,101035.16
2023-01-07T01:05:33.260Z,101038.38
2023-01-07T01:07:35.730Z,101038.09
2023-01-07T01:09:41.230Z,101046.75
2023-01-07T01:11:44.683Z,101037.28
2023-01-07T01:13:46.588Z,101030.78
2023-01-07T01:15:49.422Z,101027.81
2023-01-07T01:17:51.921Z,101038.34
2023-01-07T01:19:53.735Z,101035.09
2023-01-07T01:21:55.579Z,101033.72
2023-01-07T01:23:57.352Z,101026.97
2023-01-07T01:26:03.510Z,101030.72
2023-01-07T01:28:07.506Z,101028.59
2023-01-07T01:30:11.024Z,101034.28
2023-01-07T01:32:12.751Z,101034.28
2023-01-07T01:34:14.791Z,101026.44
2023-01-07T01:36:16.677Z,101029.16
2023-01-07T01:38:18.441Z,101027.00
2023-01-07T01:40:20.348Z,101022.66
2023-01-07T01:42:23.601Z,101022.09
2023-01-07T01:44:45.488Z,101021.03
2023-01-07T01:46:47.295Z,101027.56
2023-01-07T01:48:56.317Z,101017.25
2023-01-07T01:50:58.710Z,101018.09
2023-01-07T01:53:04.799Z,101015.09
2023-01-07T01:55:10.209Z,101016.50
2023-01-07T01:57:12.577Z,101009.19
2023-01-07T01:59:18.883Z,101011.06
2023-01-07T02:01:22.372Z,101017.06
2023-01-07T02:03:27.049Z,101005.13
2023-01-07T02:05:32.949Z,101014.91
2023-01-07T02:07:34.765Z,101010.84
2023-01-07T02:09:36.641Z,101004.88
2023-01-07T02:11:48.026Z,101008.13
2023-01-07T02:22:14.966Z,101000.00
2023-01-07T02:24:49.494Z,100996.22
2023-01-07T02:27:25.268Z,100997.31
2023-01-07T02:30:20.690Z,100989.19
2023-01-07T02:32:35.221Z,100980.78
2023-01-07T02:34:43.259Z,100980.00
2023-01-07T02:36:52.482Z,100986.47
2023-01-07T02:39:07.209Z,100983.78
2023-01-07T02:41:17.171Z,100975.97
2023-01-07T02:43:30.020Z,100968.41
2023-01-07T02:45:36.356Z,100968.94
2023-01-07T02:47:47.107Z,100972.44
2023-01-07T02:49:51.796Z,100963.53
2023-01-07T02:51:53.582Z,100968.66
2023-01-07T02:53:55.410Z,100958.91
2023-01-07T02:56:09.788Z,100962.38
2023-01-07T02:58:41.613Z,100960.78
2023-01-07T03:01:10.220Z,100954.31
2023-01-07T03:03:38.207Z,100960.00
2023-01-07T03:05:48.450Z,100953.50
2023-01-07T03:08:09.929Z,100941.88
2023-01-07T03:10:24.725Z,100945.63
2023-01-07T03:12:32.951Z,100943.22
2023-01-07T03:14:40.994Z,100938.09
2023-01-07T03:16:47.357Z,100935.41
2023-01-07T03:18:59.535Z,100937.50
2023-01-07T03:21:06.076Z,100939.97
2023-01-07T03:23:11.050Z,100938.91
2023-01-07T03:25:14.044Z,100936.75
2023-01-07T03:27:19.189Z,100938.91
2023-01-07T03:29:22.060Z,100932.69
2023-01-07T03:31:24.050Z,100931.06
2023-01-07T03:33:31.089Z,100929.47
2023-01-07T03:35:38.087Z,100933.53
2023-01-07T03:40:24.860Z,100932.94
2023-01-07T03:42:31.193Z,100924.34
2023-01-07T03:44:33.116Z,100922.44
2023-01-07T03:46:37.007Z,100918.09
2023-01-07T03:48:38.804Z,100919.47
2023-01-07T03:50:42.207Z,100918.94
2023-01-07T03:52:44.824Z,100920.00
2023-01-07T03:54:46.713Z,100918.09
2023-01-07T03:56:48.464Z,100911.06
2023-01-07T03:58:50.215Z,100915.09
2023-01-07T04:00:54.901Z,100917.56
2023-01-07T04:02:56.672Z,100910.22
2023-01-07T04:04:58.314Z,100903.75
2023-01-07T04:07:01.941Z,100908.88
2023-01-07T04:09:03.909Z,100905.41
2023-01-07T04:11:06.046Z,100904.03
2023-01-07T04:13:07.780Z,100902.09
2023-01-07T04:15:10.291Z,100897.25
2023-01-07T04:17:12.452Z,100896.94
2023-01-07T04:19:14.482Z,100887.47
2023-01-07T04:21:16.254Z,100883.69
2023-01-07T04:23:19.584Z,100882.06
2023-01-07T04:25:21.326Z,100881.31
2023-01-07T04:27:22.994Z,100875.66
2023-01-07T04:29:24.703Z,100876.69
2023-01-07T04:31:26.548Z,100880.72
2023-01-07T04:33:28.446Z,100871.81
2023-01-07T04:35:30.254Z,100875.84
2023-01-07T04:37:32.209Z,100868.56
2023-01-07T04:39:35.556Z,100874.84
2023-01-07T04:41:37.291Z,100870.75
2023-01-07T04:43:40.652Z,100869.41
2023-01-07T04:45:42.600Z,100865.59
2023-01-07T04:47:44.231Z,100865.31
2023-01-07T04:49:46.008Z,100867.19
2023-01-07T04:51:47.811Z,100862.84
2023-01-07T04:53:49.487Z,100860.66
2023-01-07T04:55:52.904Z,100853.88
2023-01-07T04:57:54.699Z,100856.03
2023-01-07T04:59:56.479Z,100851.69
2023-01-07T05:01:58.442Z,100847.94
2023-01-07T05:04:00.593Z,100846.84
2023-01-07T05:06:02.822Z,100849.78
2023-01-07T05:08:05.410Z,100851.13
2023-01-07T05:10:08.071Z,100849.53
2023-01-07T05:12:11.820Z,100841.19
2023-01-07T05:14:22.948Z,100844.69
2023-01-07T05:16:24.773Z,100843.88
2023-01-07T05:18:27.373Z,100834.72
2023-01-07T05:20:29.458Z,100839.56
2023-01-07T05:25:12.387Z,100834.72
2023-01-07T05:27:15.673Z,100829.31
2023-01-07T05:29:17.571Z,100832.31
2023-01-07T05:31:19.359Z,100825.81
2023-01-07T05:33:21.150Z,100821.41
2023-01-07T05:35:23.159Z,100816.56
2023-01-07T05:37:25.153Z,100809.06
2023-01-07T05:39:27.102Z,100810.13
2023-01-07T05:41:31.679Z,100812.28
2023-01-07T05:43:36.404Z,100810.69
2023-01-07T05:45:38.346Z,100813.41
2023-01-07T05:47:40.120Z,100808.81
2023-01-07T05:49:41.830Z,100806.38
2023-01-07T05:51:46.233Z,100798.56
2023-01-07T05:53:48.123Z,100801.25
2023-01-07T05:55:55.017Z,100793.69
2023-01-07T05:58:04.483Z,100795.84
2023-01-07T06:02:28.900Z,100792.63
2023-01-07T06:04:32.802Z,100790.72
2023-01-07T06:07:15.384Z,100793.16
2023-01-07T06:39:23.878Z,100766.97
2023-01-07T07:06:50.827Z,100742.47
2023-01-07T07:49:07.022Z,100712.72
2023-01-07T07:51:08.830Z,100715.97
2023-01-07T07:53:10.770Z,100715.19
2023-01-07T07:55:20.664Z,100698.47
2023-01-07T07:57:28.020Z,100700.34
2023-01-07T07:59:30.020Z,100702.50
2023-01-07T08:01:32.003Z,100698.22
2023-01-07T08:03:33.888Z,100704.22
2023-01-07T08:05:40.397Z,100699.84
2023-01-07T08:12:53.762Z,100692.03
2023-01-07T08:17:13.547Z,100687.94
2023-01-07T08:19:15.307Z,100686.63
2023-01-07T08:21:18.742Z,100684.44
2023-01-07T08:23:21.271Z,100683.09
2023-01-07T08:25:23.546Z,100680.66
2023-01-07T08:27:54.063Z,100680.91
2023-01-07T08:29:56.200Z,100678.78
2023-01-07T08:32:07.000Z,100680.34
2023-01-07T08:34:08.846Z,100680.34
2023-01-07T08:36:22.031Z,100672.25
2023-01-07T08:38:26.250Z,100679.78
2023-01-07T08:40:28.319Z,100678.75
2023-01-07T08:42:32.717Z,100676.59
2023-01-07T08:44:34.729Z,100677.09
2023-01-07T08:48:58.801Z,100674.88
2023-01-07T08:51:04.729Z,100658.38
2023-01-07T08:53:06.814Z,100660.78
2023-01-07T08:55:10.187Z,100664.88
2023-01-07T08:57:12.057Z,100665.44
2023-01-07T08:59:13.831Z,100663.84
2023-01-07T09:01:15.951Z,100667.25
2023-01-07T09:04:04.846Z,100668.28
2023-01-07T09:06:07.919Z,100660.22
2023-01-07T09:08:09.726Z,100659.66
2023-01-07T09:10:15.676Z,100653.44
2023-01-07T09:12:17.845Z,100655.28
2023-01-07T09:14:19.822Z,100649.06
2023-01-07T09:16:21.713Z,100650.16
2023-01-07T09:18:23.589Z,100647.47
2023-01-07T09:20:26.911Z,100642.50
2023-01-07T09:22:28.711Z,100641.72
2023-01-07T09:24:30.676Z,100639.78
2023-01-07T09:26:33.860Z,100639.75
2023-01-07T09:28:37.680Z,100630.75
2023-01-07T09:30:39.823Z,100629.16
2023-01-07T09:32:46.292Z,100628.34
2023-01-07T09:34:51.764Z,100625.41
2023-01-07T09:39:14.405Z,100623.34
2023-01-07T09:44:11.195Z,100617.03
2023-01-07T09:46:13.828Z,100614.31
2023-01-07T09:48:23.260Z,100619.94
2023-01-07T09:51:07.807Z,100607.47
2023-01-07T09:53:15.010Z,100607.22
2023-01-07T09:55:21.037Z,100607.69
2023-01-07T09:57:23.141Z,100608.47
2023-01-07T10:00:22.099Z,100608.63
2023-01-07T10:02:39.556Z,100616.69
2023-01-07T10:05:06.745Z,100608.34
2023-01-07T10:07:18.226Z,100612.59
2023-01-07T10:09:30.872Z,100611.19
2023-01-07T10:11:45.530Z,100603.91
2023-01-07T10:14:08.262Z,100597.16
2023-01-07T10:16:20.051Z,100599.06
2023-01-07T10:18:42.777Z,100599.72
2023-01-07T10:20:51.612Z,100594.03
2023-01-07T10:22:57.632Z,100595.03
2023-01-07T10:27:29.233Z,100583.47
2023-01-07T10:29:36.217Z,100577.91
2023-01-07T10:31:41.034Z,100579.47
2023-01-07T10:33:45.954Z,100578.00
2023-01-07T10:35:52.607Z,100580.31
2023-01-07T10:38:00.178Z,100569.19
2023-01-07T10:40:17.291Z,100577.75
2023-01-07T10:42:34.724Z,100568.78
2023-01-07T10:44:54.736Z,100560.81
2023-01-07T10:47:06.599Z,100564.16
2023-01-07T10:49:28.309Z,100559.03
2023-01-07T10:51:44.448Z,100550.81
2023-01-07T10:54:00.063Z,100540.19
2023-01-07T10:56:37.490Z,100535.59
2023-01-07T10:59:02.633Z,100529.47
2023-01-07T11:01:05.531Z,100520.53
2023-01-07T11:03:30.650Z,100527.34
2023-01-07T11:05:59.599Z,100513.53
2023-01-07T11:10:21.849Z,100508.13
2023-01-07T11:12:33.967Z,100510.31
2023-01-07T11:14:41.408Z,100504.97
2023-01-07T11:16:54.479Z,100493.63
2023-01-07T11:19:08.671Z,100491.44
2023-01-07T11:21:43.060Z,100493.88
2023-01-07T11:23:46.200Z,100491.16
2023-01-07T11:25:48.242Z,100485.41
2023-01-07T11:30:26.837Z,100480.00
2023-01-07T11:32:32.374Z,100482.69
2023-01-07T11:34:37.392Z,100473.91
2023-01-07T11:36:42.581Z,100470.31
2023-01-07T11:38:50.419Z,100465.19
2023-01-07T11:40:58.311Z,100470.59
2023-01-07T11:43:03.505Z,100456.75
2023-01-07T11:45:12.171Z,100456.50
2023-01-07T11:49:51.285Z,100452.56
2023-01-07T11:51:56.734Z,100444.31
2023-01-07T11:56:24.431Z,100436.59
2023-01-07T12:01:13.950Z,100425.22
2023-01-07T12:03:25.272Z,100414.09
2023-01-07T12:05:27.715Z,100419.13
2023-01-07T12:07:36.223Z,100411.19
2023-01-07T12:09:51.240Z,100416.31
2023-01-07T12:11:57.471Z,100402.88
2023-01-07T12:14:06.355Z,100395.03
2023-01-07T12:16:09.410Z,100399.97
2023-01-07T12:18:36.443Z,100388.84
2023-01-07T12:20:59.485Z,100386.91
2023-01-07T12:23:13.853Z,100383.09
2023-01-07T12:28:04.260Z,100385.03
2023-01-07T12:30:29.398Z,100374.06
2023-01-07T12:32:42.356Z,100371.38
2023-01-07T12:34:51.863Z,100358.22
2023-01-07T12:39:35.303Z,100361.84
2023-01-07T12:41:42.227Z,100349.78
2023-01-07T12:43:58.860Z,100350.41
2023-01-07T12:46:11.807Z,100353.94
2023-01-07T12:48:22.047Z,100350.91
2023-01-07T12:50:28.686Z,100344.00
2023-01-07T12:52:39.959Z,100339.16
2023-01-07T12:55:16.664Z,100342.25
2023-01-07T12:57:23.759Z,100331.72
2023-01-07T12:59:46.041Z,100327.13
2023-01-07T13:02:20.092Z,100322.88
2023-01-07T13:04:43.421Z,100319.97
2023-01-07T13:06:55.140Z,100321.78
2023-01-07T13:09:02.312Z,100317.19
2023-01-07T13:11:16.991Z,100312.28
2023-01-07T13:13:25.600Z,100309.34
2023-01-07T13:15:29.441Z,100313.56
2023-01-07T13:17:32.533Z,100298.72
2023-01-07T13:19:50.808Z,100308.25
2023-01-07T13:21:56.928Z,100303.56
2023-01-07T13:24:19.869Z,100306.13
2023-01-07T13:26:33.657Z,100301.84
2023-01-07T13:29:00.174Z,100295.88
2023-01-07T13:34:20.587Z,100275.03
2023-01-07T13:36:40.134Z,100292.69
2023-01-07T13:39:49.505Z,100280.06
2023-01-07T13:42:01.393Z,100281.28
2023-01-07T13:44:27.068Z,100284.22
2023-01-07T13:46:37.082Z,100283.91
2023-01-07T13:48:56.603Z,100287.81
2023-01-07T13:51:00.714Z,100285.19
2023-01-07T13:53:05.468Z,100288.19
2023-01-07T13:55:30.758Z,100287.25
2023-01-07T13:57:45.411Z,100291.72
2023-01-07T13:59:58.597Z,100291.72
2023-01-07T14:02:26.051Z,100290.09
2023-01-07T14:07:20.430Z,100273.94
2023-01-07T14:13:55.919Z,100268.63
2023-01-07T15:02:04.088Z,100233.00
2023-01-07T15:06:27.283Z,100232.53
2023-01-07T15:08:39.270Z,100234.31
2023-01-07T15:10:41.889Z,100231.28
2023-01-07T15:12:47.076Z,100224.28
2023-01-07T15:14:54.924Z,100226.00
2023-01-07T15:16:58.400Z,100225.38
2023-01-07T15:19:00.342Z,100225.69
2023-01-07T15:21:15.305Z,100226.75
2023-01-07T15:23:25.992Z,100229.78
2023-01-07T15:25:44.853Z,100223.56
2023-01-07T15:27:54.623Z,100230.88
2023-01-07T15:30:03.066Z,100220.56
2023-01-07T15:32:19.069Z,100222.94
2023-01-07T15:34:30.336Z,100222.44
2023-01-07T15:36:32.331Z,100211.44
2023-01-07T15:38:40.695Z,100221.94
2023-01-07T15:40:46.587Z,100220.06
2023-01-07T15:42:50.851Z,100215.22
2023-01-07T15:44:54.798Z,100211.50
2023-01-07T15:46:56.530Z,100213.72
2023-01-07T15:49:31.047Z,100216.72
2023-01-07T15:51:39.586Z,100219.63
2023-01-07T15:53:52.959Z,100217.13
2023-01-07T15:55:59.405Z,100209.50
2023-01-07T15:58:03.844Z,100212.19
2023-01-07T16:00:08.940Z,100213.31
2023-01-07T16:02:19.929Z,100221.03
2023-01-07T16:04:27.660Z,100218.63
2023-01-07T16:06:38.733Z,100220.03
2023-01-07T16:08:44.293Z,100220.94
2023-01-07T16:10:58.347Z,100214.56
2023-01-07T16:13:01.556Z,100212.31
2023-01-07T16:15:22.113Z,100209.94
2023-01-07T16:17:23.756Z,100205.94
2023-01-07T16:19:26.841Z,100212.13
2023-01-07T16:21:33.040Z,100211.44
2023-01-07T16:23:36.425Z,100202.34
2023-01-07T16:25:40.646Z,100207.75
2023-01-07T16:27:42.328Z,100198.31
2023-01-07T16:29:51.015Z,100205.97
2023-01-07T16:31:52.950Z,100197.03
2023-01-07T16:33:57.481Z,100192.91
2023-01-07T16:36:05.126Z,100197.34
2023-01-07T16:38:07.184Z,100185.72
2023-01-07T16:40:22.031Z,100183.50
2023-01-07T16:42:23.972Z,100178.88
2023-01-07T16:44:58.304Z,100177.00
2023-01-07T16:47:09.526Z,100174.09
2023-01-07T16:49:26.010Z,100172.38
2023-01-07T16:51:38.141Z,100168.88
2023-01-07T16:53:39.750Z,100169.47
2023-01-07T16:55:49.496Z,100164.88
2023-01-07T16:57:51.218Z,100163.88
2023-01-07T16:59:54.917Z,100156.88
2023-01-07T17:01:58.817Z,100154.75
2023-01-07T17:04:06.621Z,100155.84
2023-01-07T17:06:08.597Z,100153.47
2023-01-07T17:08:19.692Z,100158.56
2023-01-07T17:10:26.174Z,100154.06
2023-01-07T17:12:29.507Z,100146.25
2023-01-07T17:14:51.851Z,100147.84
2023-01-07T17:16:59.196Z,100146.25
2023-01-07T17:19:23.476Z,100146.25
2023-01-07T17:21:45.719Z,100139.25
2023-01-07T17:23:48.841Z,100145.25
2023-01-07T17:25:55.783Z,100144.25
2023-01-07T17:28:00.912Z,100141.44
2023-01-07T17:30:05.065Z,100133.53
2023-01-07T17:32:06.805Z,100131.84
2023-01-07T17:34:11.325Z,100133.44
2023-01-07T17:36:16.584Z,100133.44
2023-01-07T17:38:18.489Z,100126.13
2023-01-07T17:40:21.541Z,100129.00
2023-01-07T17:42:26.830Z,100141.53
2023-01-07T17:44:28.457Z,100133.22
2023-01-07T17:46:30.061Z,100135.44
2023-01-07T17:48:32.307Z,100128.09
2023-01-07T17:50:36.827Z,100132.81
2023-01-07T17:52:38.654Z,100136.94
2023-01-07T17:54:41.235Z,100134.53
2023-01-07T17:56:59.088Z,100132.63
2023-01-07T17:59:00.818Z,100133.84
2023-01-07T18:01:07.191Z,100125.41
2023-01-07T18:03:09.328Z,100125.41
2023-01-07T22:38:42.954Z,100047.34
2023-01-07T22:40:44.885Z,100043.75
2023-01-07T22:42:51.252Z,100044.94
2023-01-07T22:44:59.409Z,100049.84
2023-01-07T22:47:02.389Z,100042.25
2023-01-07T22:49:04.342Z,100038.72
2023-01-07T22:51:09.552Z,100041.63
2023-01-07T22:53:11.801Z,100042.00
2023-01-07T22:55:15.256Z,100032.44
2023-01-07T22:57:17.006Z,100038.84
2023-01-07T22:59:18.788Z,100024.81
2023-01-07T23:01:20.736Z,100026.03
2023-01-07T23:03:23.934Z,100036.13
2023-01-07T23:05:25.774Z,100032.22
2023-01-07T23:07:27.633Z,100027.63
2023-01-07T23:09:35.410Z,100019.28
2023-01-07T23:11:38.694Z,100019.91
2023-01-07T23:13:40.486Z,100021.22
2023-01-07T23:15:42.375Z,100021.13
2023-01-07T23:17:46.380Z,100022.09
2023-01-07T23:19:48.138Z,100021.00
2023-01-07T23:21:51.621Z,100018.22
2023-01-07T23:23:53.525Z,100016.41
2023-01-07T23:25:55.180Z,100008.78
2023-01-07T23:27:58.791Z,100003.72
2023-01-07T23:30:00.659Z,100007.91
2023-01-07T23:32:02.529Z,99995.69
2023-01-07T23:34:04.660Z,99997.59
2023-01-07T23:36:08.806Z,99996.78
2023-01-07T23:38:10.644Z,99999.00
2023-01-07T23:40:13.071Z,100002.69
2023-01-07T23:42:14.768Z,99987.91
2023-01-07T23:44:17.976Z,99987.78
2023-01-07T23:46:19.756Z,99983.91
2023-01-07T23:48:21.567Z,99977.69
2023-01-07T23:50:23.219Z,99978.19
2023-01-07T23:52:24.969Z,99970.28
2023-01-07T23:54:29.516Z,99964.09
2023-01-07T23:56:31.147Z,99963.84
2023-01-07T23:58:33.719Z,99961.97
